sensor_id;sensor_type;location;lat;lon;timestamp;P1;durP1;ratioP1;P2;durP2;ratioP2
5774;SDS011;2913;51.120;6.772;2022-12-18T00:01:12;28.17;;;9.60;;
5774;SDS011;2913;51.120;6.772;2022-12-18T00:03:45;19.05;;;6.97;;
5774;SDS011;2913;51.120;6.772;2022-12-18T00:06:11;12.07;;;5.32;;
5774;SDS011;2913;51.120;6.772;2022-12-18T00:08:38;23.15;;;7.70;;
5774;SDS011;2913;51.120;6.772;2022-12-18T00:11:07;28.08;;;9.57;;
5774;SDS011;2913;51.120;6.772;2022-12-18T00:13:35;29.70;;;10.07;;
5774;SDS011;2913;51.120;6.772;2022-12-18T00:16:01;28.58;;;9.23;;
5774;SDS011;2913;51.120;6.772;2022-12-18T00:18:33;24.20;;;8.50;;
5774;SDS011;2913;51.120;6.772;2022-12-18T00:20:59;18.08;;;7.10;;
5774;SDS011;2913;51.120;6.772;2022-12-18T00:23:29;29.80;;;10.02;;
5774;SDS011;2913;51.120;6.772;2022-12-18T00:25:59;17.58;;;6.28;;
5774;SDS011;2913;51.120;6.772;2022-12-18T00:28:32;30.75;;;9.32;;
5774;SDS011;2913;51.120;6.772;2022-12-18T00:33:31;38.85;;;11.80;;
5774;SDS011;2913;51.120;6.772;2022-12-18T00:36:04;35.38;;;11.18;;
5774;SDS011;2913;51.120;6.772;2022-12-18T00:38:41;26.52;;;10.27;;
5774;SDS011;2913;51.120;6.772;2022-12-18T00:41:10;29.25;;;10.50;;
5774;SDS011;2913;51.120;6.772;2022-12-18T00:43:37;30.70;;;10.25;;
5774;SDS011;2913;51.120;6.772;2022-12-18T00:46:04;29.17;;;10.05;;
5774;SDS011;2913;51.120;6.772;2022-12-18T00:48:30;20.52;;;7.47;;
5774;SDS011;2913;51.120;6.772;2022-12-18T00:50:56;26.85;;;10.18;;
5774;SDS011;2913;51.120;6.772;2022-12-18T00:53:24;27.05;;;10.00;;
5774;SDS011;2913;51.120;6.772;2022-12-18T00:55:52;34.88;;;12.07;;
5774;SDS011;2913;51.120;6.772;2022-12-18T00:58:18;27.80;;;9.30;;
5774;SDS011;2913;51.120;6.772;2022-12-18T01:00:43;22.80;;;8.32;;
5774;SDS011;2913;51.120;6.772;2022-12-18T01:03:09;16.25;;;6.07;;
5774;SDS011;2913;51.120;6.772;2022-12-18T01:05:39;24.95;;;9.75;;
5774;SDS011;2913;51.120;6.772;2022-12-18T01:08:05;32.10;;;11.32;;
5774;SDS011;2913;51.120;6.772;2022-12-18T01:10:31;28.02;;;9.45;;
5774;SDS011;2913;51.120;6.772;2022-12-18T01:12:57;29.70;;;10.70;;
5774;SDS011;2913;51.120;6.772;2022-12-18T01:15:22;31.52;;;11.07;;
5774;SDS011;2913;51.120;6.772;2022-12-18T01:17:48;32.20;;;10.20;;
5774;SDS011;2913;51.120;6.772;2022-12-18T01:20:19;30.13;;;10.52;;
5774;SDS011;2913;51.120;6.772;2022-12-18T01:22:44;31.02;;;11.00;;
5774;SDS011;2913;51.120;6.772;2022-12-18T01:25:10;35.17;;;10.65;;
5774;SDS011;2913;51.120;6.772;2022-12-18T01:27:38;30.90;;;10.23;;
5774;SDS011;2913;51.120;6.772;2022-12-18T01:30:04;37.15;;;10.15;;
5774;SDS011;2913;51.120;6.772;2022-12-18T01:32:30;14.35;;;6.07;;
5774;SDS011;2913;51.120;6.772;2022-12-18T01:34:57;29.33;;;11.70;;
5774;SDS011;2913;51.120;6.772;2022-12-18T01:37:22;14.93;;;6.35;;
5774;SDS011;2913;51.120;6.772;2022-12-18T01:39:48;23.83;;;9.20;;
5774;SDS011;2913;51.120;6.772;2022-12-18T01:42:15;18.77;;;6.85;;
5774;SDS011;2913;51.120;6.772;2022-12-18T01:47:35;34.63;;;11.35;;
5774;SDS011;2913;51.120;6.772;2022-12-18T01:50:24;25.80;;;10.18;;
5774;SDS011;2913;51.120;6.772;2022-12-18T01:53:07;9.60;;;4.75;;
5774;SDS011;2913;51.120;6.772;2022-12-18T01:55:56;25.50;;;9.55;;
5774;SDS011;2913;51.120;6.772;2022-12-18T02:01:30;26.20;;;9.02;;
5774;SDS011;2913;51.120;6.772;2022-12-18T02:04:14;26.88;;;9.98;;
5774;SDS011;2913;51.120;6.772;2022-12-18T02:06:46;32.20;;;9.93;;
5774;SDS011;2913;51.120;6.772;2022-12-18T02:10:10;30.15;;;9.52;;
5774;SDS011;2913;51.120;6.772;2022-12-18T02:12:25;33.20;;;11.20;;
5774;SDS011;2913;51.120;6.772;2022-12-18T02:15:12;31.63;;;11.32;;
5774;SDS011;2913;51.120;6.772;2022-12-18T02:18:11;30.70;;;10.73;;
5774;SDS011;2913;51.120;6.772;2022-12-18T02:28:58;22.20;;;6.10;;
5774;SDS011;2913;51.120;6.772;2022-12-18T02:31:30;9.32;;;4.20;;
5774;SDS011;2913;51.120;6.772;2022-12-18T02:34:02;27.20;;;9.73;;
5774;SDS011;2913;51.120;6.772;2022-12-18T02:36:33;13.63;;;6.25;;
5774;SDS011;2913;51.120;6.772;2022-12-18T02:39:02;30.85;;;10.48;;
5774;SDS011;2913;51.120;6.772;2022-12-18T02:41:32;13.02;;;5.72;;
5774;SDS011;2913;51.120;6.772;2022-12-18T02:44:01;29.30;;;10.63;;
5774;SDS011;2913;51.120;6.772;2022-12-18T02:46:36;21.58;;;8.07;;
5774;SDS011;2913;51.120;6.772;2022-12-18T02:57:49;15.98;;;6.80;;
5774;SDS011;2913;51.120;6.772;2022-12-18T03:00:20;30.52;;;10.40;;
5774;SDS011;2913;51.120;6.772;2022-12-18T03:05:59;25.42;;;9.52;;
5774;SDS011;2913;51.120;6.772;2022-12-18T03:08:29;32.03;;;10.52;;
5774;SDS011;2913;51.120;6.772;2022-12-18T03:11:06;29.42;;;9.75;;
5774;SDS011;2913;51.120;6.772;2022-12-18T03:16:11;32.78;;;10.18;;
5774;SDS011;2913;51.120;6.772;2022-12-18T03:19:01;27.75;;;9.13;;
5774;SDS011;2913;51.120;6.772;2022-12-18T03:21:42;29.88;;;7.68;;
5774;SDS011;2913;51.120;6.772;2022-12-18T03:24:10;27.02;;;8.68;;
5774;SDS011;2913;51.120;6.772;2022-12-18T03:26:37;24.65;;;9.32;;
5774;SDS011;2913;51.120;6.772;2022-12-18T03:29:09;16.48;;;5.38;;
5774;SDS011;2913;51.120;6.772;2022-12-18T03:31:40;26.38;;;9.68;;
5774;SDS011;2913;51.120;6.772;2022-12-18T03:34:17;25.17;;;8.52;;
5774;SDS011;2913;51.120;6.772;2022-12-18T03:36:48;16.40;;;6.68;;
5774;SDS011;2913;51.120;6.772;2022-12-18T03:39:14;12.70;;;5.60;;
5774;SDS011;2913;51.120;6.772;2022-12-18T03:41:51;28.27;;;8.93;;
5774;SDS011;2913;51.120;6.772;2022-12-18T03:49:47;17.60;;;6.18;;
5774;SDS011;2913;51.120;6.772;2022-12-18T03:52:24;18.50;;;6.28;;
5774;SDS011;2913;51.120;6.772;2022-12-18T03:55:02;16.20;;;5.75;;
5774;SDS011;2913;51.120;6.772;2022-12-18T03:57:32;19.40;;;8.40;;
5774;SDS011;2913;51.120;6.772;2022-12-18T04:00:00;26.90;;;10.65;;
5774;SDS011;2913;51.120;6.772;2022-12-18T04:02:34;18.50;;;6.63;;
5774;SDS011;2913;51.120;6.772;2022-12-18T04:05:03;14.43;;;5.65;;
5774;SDS011;2913;51.120;6.772;2022-12-18T04:07:31;28.50;;;10.13;;
5774;SDS011;2913;51.120;6.772;2022-12-18T04:09:58;36.70;;;12.85;;
5774;SDS011;2913;51.120;6.772;2022-12-18T04:12:26;7.30;;;3.58;;
5774;SDS011;2913;51.120;6.772;2022-12-18T04:14:54;27.70;;;10.05;;
5774;SDS011;2913;51.120;6.772;2022-12-18T04:17:20;25.10;;;9.05;;
5774;SDS011;2913;51.120;6.772;2022-12-18T04:19:49;22.35;;;8.20;;
5774;SDS011;2913;51.120;6.772;2022-12-18T04:22:17;10.15;;;3.78;;
5774;SDS011;2913;51.120;6.772;2022-12-18T04:24:42;19.90;;;7.43;;
5774;SDS011;2913;51.120;6.772;2022-12-18T04:27:10;24.52;;;8.15;;
5774;SDS011;2913;51.120;6.772;2022-12-18T04:29:36;30.67;;;11.40;;
5774;SDS011;2913;51.120;6.772;2022-12-18T04:32:02;25.83;;;9.63;;
5774;SDS011;2913;51.120;6.772;2022-12-18T04:34:29;25.75;;;10.57;;
5774;SDS011;2913;51.120;6.772;2022-12-18T04:36:55;26.38;;;10.90;;
5774;SDS011;2913;51.120;6.772;2022-12-18T04:39:21;26.60;;;9.93;;
5774;SDS011;2913;51.120;6.772;2022-12-18T04:41:49;33.13;;;11.32;;
5774;SDS011;2913;51.120;6.772;2022-12-18T04:44:17;26.35;;;10.27;;
5774;SDS011;2913;51.120;6.772;2022-12-18T04:46:42;30.98;;;9.70;;
5774;SDS011;2913;51.120;6.772;2022-12-18T04:49:08;35.83;;;11.88;;
5774;SDS011;2913;51.120;6.772;2022-12-18T04:51:35;35.67;;;11.70;;
5774;SDS011;2913;51.120;6.772;2022-12-18T04:54:03;28.08;;;8.63;;
5774;SDS011;2913;51.120;6.772;2022-12-18T04:56:30;32.40;;;11.68;;
5774;SDS011;2913;51.120;6.772;2022-12-18T04:58:58;28.65;;;9.55;;
5774;SDS011;2913;51.120;6.772;2022-12-18T05:01:24;17.17;;;6.13;;
5774;SDS011;2913;51.120;6.772;2022-12-18T05:03:52;28.20;;;8.25;;
5774;SDS011;2913;51.120;6.772;2022-12-18T05:06:22;23.73;;;8.18;;
5774;SDS011;2913;51.120;6.772;2022-12-18T05:08:48;14.82;;;4.97;;
5774;SDS011;2913;51.120;6.772;2022-12-18T05:11:14;7.70;;;3.95;;
5774;SDS011;2913;51.120;6.772;2022-12-18T05:13:40;17.52;;;6.82;;
5774;SDS011;2913;51.120;6.772;2022-12-18T05:16:06;25.33;;;6.45;;
5774;SDS011;2913;51.120;6.772;2022-12-18T05:18:33;22.83;;;8.52;;
5774;SDS011;2913;51.120;6.772;2022-12-18T05:20:58;17.83;;;8.45;;
5774;SDS011;2913;51.120;6.772;2022-12-18T05:23:26;21.30;;;8.10;;
5774;SDS011;2913;51.120;6.772;2022-12-18T05:28:21;14.90;;;5.97;;
5774;SDS011;2913;51.120;6.772;2022-12-18T05:30:52;39.92;;;10.80;;
5774;SDS011;2913;51.120;6.772;2022-12-18T05:33:23;12.88;;;4.85;;
5774;SDS011;2913;51.120;6.772;2022-12-18T05:35:51;23.15;;;7.60;;
5774;SDS011;2913;51.120;6.772;2022-12-18T05:38:22;35.13;;;11.70;;
5774;SDS011;2913;51.120;6.772;2022-12-18T05:40:49;19.00;;;7.28;;
5774;SDS011;2913;51.120;6.772;2022-12-18T05:43:15;20.48;;;8.40;;
5774;SDS011;2913;51.120;6.772;2022-12-18T05:45:43;27.88;;;9.60;;
5774;SDS011;2913;51.120;6.772;2022-12-18T05:48:09;31.30;;;8.48;;
5774;SDS011;2913;51.120;6.772;2022-12-18T05:50:37;16.13;;;5.55;;
5774;SDS011;2913;51.120;6.772;2022-12-18T05:53:06;23.80;;;8.48;;
5774;SDS011;2913;51.120;6.772;2022-12-18T05:55:36;22.13;;;7.40;;
5774;SDS011;2913;51.120;6.772;2022-12-18T05:58:03;32.33;;;9.00;;
5774;SDS011;2913;51.120;6.772;2022-12-18T06:00:30;30.45;;;10.27;;
5774;SDS011;2913;51.120;6.772;2022-12-18T06:02:57;28.63;;;11.02;;
5774;SDS011;2913;51.120;6.772;2022-12-18T06:05:24;26.20;;;9.50;;
5774;SDS011;2913;51.120;6.772;2022-12-18T06:07:51;25.00;;;7.80;;
5774;SDS011;2913;51.120;6.772;2022-12-18T06:10:17;35.28;;;11.95;;
5774;SDS011;2913;51.120;6.772;2022-12-18T06:12:43;21.25;;;7.43;;
5774;SDS011;2913;51.120;6.772;2022-12-18T06:15:09;35.85;;;10.90;;
5774;SDS011;2913;51.120;6.772;2022-12-18T06:17:34;33.53;;;11.70;;
5774;SDS011;2913;51.120;6.772;2022-12-18T06:20:03;19.00;;;6.90;;
5774;SDS011;2913;51.120;6.772;2022-12-18T06:22:32;28.55;;;10.38;;
5774;SDS011;2913;51.120;6.772;2022-12-18T06:27:31;43.97;;;13.88;;
5774;SDS011;2913;51.120;6.772;2022-12-18T06:30:00;28.05;;;9.68;;
5774;SDS011;2913;51.120;6.772;2022-12-18T06:32:26;19.92;;;8.38;;
5774;SDS011;2913;51.120;6.772;2022-12-18T06:34:51;25.63;;;9.57;;
5774;SDS011;2913;51.120;6.772;2022-12-18T06:37:21;26.60;;;8.18;;
5774;SDS011;2913;51.120;6.772;2022-12-18T06:39:49;23.38;;;8.98;;
5774;SDS011;2913;51.120;6.772;2022-12-18T06:42:17;54.45;;;14.45;;
5774;SDS011;2913;51.120;6.772;2022-12-18T06:44:43;33.75;;;11.27;;
5774;SDS011;2913;51.120;6.772;2022-12-18T06:47:09;29.17;;;11.32;;
5774;SDS011;2913;51.120;6.772;2022-12-18T06:49:34;20.88;;;7.05;;
5774;SDS011;2913;51.120;6.772;2022-12-18T06:52:02;30.08;;;8.60;;
5774;SDS011;2913;51.120;6.772;2022-12-18T06:54:28;19.17;;;6.63;;
5774;SDS011;2913;51.120;6.772;2022-12-18T06:56:56;19.45;;;9.32;;
5774;SDS011;2913;51.120;6.772;2022-12-18T06:59:22;25.13;;;7.50;;
5774;SDS011;2913;51.120;6.772;2022-12-18T07:01:47;24.65;;;8.70;;
5774;SDS011;2913;51.120;6.772;2022-12-18T07:04:13;38.58;;;11.82;;
5774;SDS011;2913;51.120;6.772;2022-12-18T07:06:38;34.75;;;10.93;;
5774;SDS011;2913;51.120;6.772;2022-12-18T07:09:04;20.10;;;8.07;;
5774;SDS011;2913;51.120;6.772;2022-12-18T07:11:32;37.45;;;10.50;;
5774;SDS011;2913;51.120;6.772;2022-12-18T07:14:03;45.03;;;12.00;;
5774;SDS011;2913;51.120;6.772;2022-12-18T07:16:28;24.30;;;7.50;;
5774;SDS011;2913;51.120;6.772;2022-12-18T07:18:54;39.00;;;11.88;;
5774;SDS011;2913;51.120;6.772;2022-12-18T07:21:21;17.02;;;6.57;;
5774;SDS011;2913;51.120;6.772;2022-12-18T07:23:50;44.85;;;12.52;;
5774;SDS011;2913;51.120;6.772;2022-12-18T07:26:19;34.13;;;12.07;;
5774;SDS011;2913;51.120;6.772;2022-12-18T07:28:48;28.95;;;8.55;;
5774;SDS011;2913;51.120;6.772;2022-12-18T07:31:15;50.88;;;16.02;;
5774;SDS011;2913;51.120;6.772;2022-12-18T07:33:45;33.40;;;10.30;;
5774;SDS011;2913;51.120;6.772;2022-12-18T07:36:12;35.92;;;10.75;;
5774;SDS011;2913;51.120;6.772;2022-12-18T07:38:38;38.78;;;12.20;;
5774;SDS011;2913;51.120;6.772;2022-12-18T07:41:05;58.75;;;17.92;;
5774;SDS011;2913;51.120;6.772;2022-12-18T07:43:32;44.92;;;14.00;;
5774;SDS011;2913;51.120;6.772;2022-12-18T07:46:01;63.67;;;19.17;;
5774;SDS011;2913;51.120;6.772;2022-12-18T07:48:30;64.60;;;18.63;;
5774;SDS011;2913;51.120;6.772;2022-12-18T07:51:02;48.58;;;13.50;;
5774;SDS011;2913;51.120;6.772;2022-12-18T07:53:30;43.00;;;13.00;;
5774;SDS011;2913;51.120;6.772;2022-12-18T07:55:59;45.78;;;14.00;;
5774;SDS011;2913;51.120;6.772;2022-12-18T07:58:26;55.03;;;15.60;;
5774;SDS011;2913;51.120;6.772;2022-12-18T08:00:52;37.70;;;10.60;;
5774;SDS011;2913;51.120;6.772;2022-12-18T08:03:20;29.40;;;10.63;;
5774;SDS011;2913;51.120;6.772;2022-12-18T08:05:48;38.60;;;11.32;;
5774;SDS011;2913;51.120;6.772;2022-12-18T08:08:13;42.00;;;12.13;;
5774;SDS011;2913;51.120;6.772;2022-12-18T08:10:39;38.33;;;11.98;;
5774;SDS011;2913;51.120;6.772;2022-12-18T08:13:04;41.55;;;13.35;;
5774;SDS011;2913;51.120;6.772;2022-12-18T08:15:30;43.78;;;12.90;;
5774;SDS011;2913;51.120;6.772;2022-12-18T08:17:56;62.45;;;19.92;;
5774;SDS011;2913;51.120;6.772;2022-12-18T08:20:22;26.88;;;11.90;;
5774;SDS011;2913;51.120;6.772;2022-12-18T08:22:48;29.08;;;10.52;;
5774;SDS011;2913;51.120;6.772;2022-12-18T08:25:13;36.55;;;11.98;;
5774;SDS011;2913;51.120;6.772;2022-12-18T08:27:39;48.97;;;15.05;;
5774;SDS011;2913;51.120;6.772;2022-12-18T08:30:05;58.72;;;12.88;;
5774;SDS011;2913;51.120;6.772;2022-12-18T08:32:34;43.80;;;13.40;;
5774;SDS011;2913;51.120;6.772;2022-12-18T08:34:59;32.65;;;8.82;;
5774;SDS011;2913;51.120;6.772;2022-12-18T08:37:25;28.45;;;11.90;;
5774;SDS011;2913;51.120;6.772;2022-12-18T08:39:51;28.77;;;11.10;;
5774;SDS011;2913;51.120;6.772;2022-12-18T08:42:18;33.65;;;12.10;;
5774;SDS011;2913;51.120;6.772;2022-12-18T08:45:03;27.38;;;10.68;;
5774;SDS011;2913;51.120;6.772;2022-12-18T08:47:29;52.47;;;15.75;;
5774;SDS011;2913;51.120;6.772;2022-12-18T08:49:57;45.35;;;17.00;;
5774;SDS011;2913;51.120;6.772;2022-12-18T08:52:25;61.88;;;16.20;;
5774;SDS011;2913;51.120;6.772;2022-12-18T08:54:50;29.88;;;10.55;;
5774;SDS011;2913;51.120;6.772;2022-12-18T08:57:16;56.70;;;20.60;;
5774;SDS011;2913;51.120;6.772;2022-12-18T08:59:44;38.83;;;13.57;;
5774;SDS011;2913;51.120;6.772;2022-12-18T09:02:10;51.50;;;17.52;;
5774;SDS011;2913;51.120;6.772;2022-12-18T09:04:39;64.50;;;17.30;;
5774;SDS011;2913;51.120;6.772;2022-12-18T09:07:09;36.95;;;9.98;;
5774;SDS011;2913;51.120;6.772;2022-12-18T09:09:35;51.38;;;13.43;;
5774;SDS011;2913;51.120;6.772;2022-12-18T09:12:00;30.80;;;11.07;;
5774;SDS011;2913;51.120;6.772;2022-12-18T09:14:26;43.60;;;13.02;;
5774;SDS011;2913;51.120;6.772;2022-12-18T09:16:54;34.38;;;14.75;;
5774;SDS011;2913;51.120;6.772;2022-12-18T09:19:24;51.97;;;14.88;;
5774;SDS011;2913;51.120;6.772;2022-12-18T09:21:52;57.25;;;16.63;;
5774;SDS011;2913;51.120;6.772;2022-12-18T09:24:20;14.18;;;5.93;;
5774;SDS011;2913;51.120;6.772;2022-12-18T09:26:45;62.38;;;16.30;;
5774;SDS011;2913;51.120;6.772;2022-12-18T09:29:19;45.90;;;14.23;;
5774;SDS011;2913;51.120;6.772;2022-12-18T09:31:48;39.58;;;13.90;;
5774;SDS011;2913;51.120;6.772;2022-12-18T09:34:16;43.55;;;14.38;;
5774;SDS011;2913;51.120;6.772;2022-12-18T09:36:41;47.58;;;16.00;;
5774;SDS011;2913;51.120;6.772;2022-12-18T09:39:09;49.75;;;12.48;;
5774;SDS011;2913;51.120;6.772;2022-12-18T09:41:45;32.15;;;12.45;;
5774;SDS011;2913;51.120;6.772;2022-12-18T09:46:46;47.25;;;19.60;;
5774;SDS011;2913;51.120;6.772;2022-12-18T09:49:19;32.13;;;12.18;;
5774;SDS011;2913;51.120;6.772;2022-12-18T09:54:24;62.85;;;22.08;;
5774;SDS011;2913;51.120;6.772;2022-12-18T09:56:56;31.52;;;13.35;;
5774;SDS011;2913;51.120;6.772;2022-12-18T09:59:26;59.08;;;16.33;;
5774;SDS011;2913;51.120;6.772;2022-12-18T10:01:59;63.45;;;19.65;;
5774;SDS011;2913;51.120;6.772;2022-12-18T10:04:25;42.58;;;16.88;;
5774;SDS011;2913;51.120;6.772;2022-12-18T10:07:01;39.08;;;9.55;;
5774;SDS011;2913;51.120;6.772;2022-12-18T10:15:42;38.42;;;14.77;;
5774;SDS011;2913;51.120;6.772;2022-12-18T10:20:58;39.90;;;15.55;;
5774;SDS011;2913;51.120;6.772;2022-12-18T10:23:35;62.13;;;19.65;;
5774;SDS011;2913;51.120;6.772;2022-12-18T10:26:08;46.63;;;13.82;;
5774;SDS011;2913;51.120;6.772;2022-12-18T10:28:37;47.33;;;14.02;;
5774;SDS011;2913;51.120;6.772;2022-12-18T10:31:05;40.80;;;15.93;;
5774;SDS011;2913;51.120;6.772;2022-12-18T10:33:32;43.45;;;16.00;;
5774;SDS011;2913;51.120;6.772;2022-12-18T10:35:59;38.97;;;13.35;;
5774;SDS011;2913;51.120;6.772;2022-12-18T10:38:29;38.65;;;11.40;;
5774;SDS011;2913;51.120;6.772;2022-12-18T10:48:26;45.97;;;15.43;;
5774;SDS011;2913;51.120;6.772;2022-12-18T10:50:55;47.20;;;18.27;;
5774;SDS011;2913;51.120;6.772;2022-12-18T10:53:23;56.22;;;19.80;;
5774;SDS011;2913;51.120;6.772;2022-12-18T10:55:50;51.85;;;18.15;;
5774;SDS011;2913;51.120;6.772;2022-12-18T11:01:13;53.88;;;16.83;;
5774;SDS011;2913;51.120;6.772;2022-12-18T11:06:15;51.88;;;18.08;;
5774;SDS011;2913;51.120;6.772;2022-12-18T11:08:44;40.70;;;14.20;;
5774;SDS011;2913;51.120;6.772;2022-12-18T11:11:22;42.33;;;16.63;;
5774;SDS011;2913;51.120;6.772;2022-12-18T11:16:21;46.63;;;17.38;;
5774;SDS011;2913;51.120;6.772;2022-12-18T11:18:46;59.75;;;15.10;;
5774;SDS011;2913;51.120;6.772;2022-12-18T11:21:12;52.38;;;16.92;;
5774;SDS011;2913;51.120;6.772;2022-12-18T11:23:46;47.45;;;13.25;;
5774;SDS011;2913;51.120;6.772;2022-12-18T11:26:17;57.95;;;16.77;;
5774;SDS011;2913;51.120;6.772;2022-12-18T11:28:47;54.90;;;15.07;;
5774;SDS011;2913;51.120;6.772;2022-12-18T11:36:21;52.88;;;17.25;;
5774;SDS011;2913;51.120;6.772;2022-12-18T11:38:51;45.92;;;17.35;;
5774;SDS011;2913;51.120;6.772;2022-12-18T11:41:24;34.72;;;14.00;;
5774;SDS011;2913;51.120;6.772;2022-12-18T11:44:18;43.85;;;14.68;;
5774;SDS011;2913;51.120;6.772;2022-12-18T11:46:51;56.33;;;22.75;;
5774;SDS011;2913;51.120;6.772;2022-12-18T11:49:38;38.92;;;14.18;;
5774;SDS011;2913;51.120;6.772;2022-12-18T11:52:25;41.72;;;15.35;;
5774;SDS011;2913;51.120;6.772;2022-12-18T11:55:13;42.58;;;15.13;;
5774;SDS011;2913;51.120;6.772;2022-12-18T12:08:15;50.10;;;17.13;;
5774;SDS011;2913;51.120;6.772;2022-12-18T12:30:57;49.50;;;11.60;;
5774;SDS011;2913;51.120;6.772;2022-12-18T12:39:10;50.10;;;20.15;;
5774;SDS011;2913;51.120;6.772;2022-12-18T12:41:46;51.00;;;18.33;;
5774;SDS011;2913;51.120;6.772;2022-12-18T12:44:34;40.47;;;14.93;;
5774;SDS011;2913;51.120;6.772;2022-12-18T12:47:48;68.25;;;20.05;;
5774;SDS011;2913;51.120;6.772;2022-12-18T12:50:04;51.60;;;18.58;;
5774;SDS011;2913;51.120;6.772;2022-12-18T12:52:39;55.38;;;18.98;;
5774;SDS011;2913;51.120;6.772;2022-12-18T12:55:13;41.08;;;15.07;;
5774;SDS011;2913;51.120;6.772;2022-12-18T12:57:44;36.38;;;12.65;;
5774;SDS011;2913;51.120;6.772;2022-12-18T13:00:16;51.58;;;16.73;;
5774;SDS011;2913;51.120;6.772;2022-12-18T13:07:50;58.40;;;16.77;;
5774;SDS011;2913;51.120;6.772;2022-12-18T13:10:34;41.78;;;13.43;;
5774;SDS011;2913;51.120;6.772;2022-12-18T13:13:06;44.92;;;15.38;;
5774;SDS011;2913;51.120;6.772;2022-12-18T13:15:42;48.33;;;18.67;;
5774;SDS011;2913;51.120;6.772;2022-12-18T13:18:16;49.80;;;20.02;;
5774;SDS011;2913;51.120;6.772;2022-12-18T13:25:53;35.25;;;15.48;;
5774;SDS011;2913;51.120;6.772;2022-12-18T13:31:08;40.63;;;14.40;;
5774;SDS011;2913;51.120;6.772;2022-12-18T13:33:42;48.88;;;17.55;;
5774;SDS011;2913;51.120;6.772;2022-12-18T13:36:12;25.48;;;9.73;;
5774;SDS011;2913;51.120;6.772;2022-12-18T13:38:42;52.88;;;15.38;;
5774;SDS011;2913;51.120;6.772;2022-12-18T13:43:47;71.78;;;20.55;;
5774;SDS011;2913;51.120;6.772;2022-12-18T13:46:21;36.20;;;14.60;;
5774;SDS011;2913;51.120;6.772;2022-12-18T13:48:54;60.10;;;20.83;;
5774;SDS011;2913;51.120;6.772;2022-12-18T13:51:31;28.80;;;10.32;;
5774;SDS011;2913;51.120;6.772;2022-12-18T13:53:59;47.72;;;15.70;;
5774;SDS011;2913;51.120;6.772;2022-12-18T13:56:30;63.78;;;18.08;;
5774;SDS011;2913;51.120;6.772;2022-12-18T14:01:43;40.97;;;16.90;;
5774;SDS011;2913;51.120;6.772;2022-12-18T14:06:55;58.15;;;17.80;;
5774;SDS011;2913;51.120;6.772;2022-12-18T14:10:00;65.47;;;22.70;;
5774;SDS011;2913;51.120;6.772;2022-12-18T14:12:32;48.92;;;15.52;;
5774;SDS011;2913;51.120;6.772;2022-12-18T14:20:50;41.08;;;14.63;;
5774;SDS011;2913;51.120;6.772;2022-12-18T14:25:56;52.60;;;19.08;;
5774;SDS011;2913;51.120;6.772;2022-12-18T14:28:24;36.70;;;14.30;;
5774;SDS011;2913;51.120;6.772;2022-12-18T14:30:51;57.42;;;17.83;;
5774;SDS011;2913;51.120;6.772;2022-12-18T14:33:21;50.42;;;17.15;;
5774;SDS011;2913;51.120;6.772;2022-12-18T14:36:04;60.50;;;19.48;;
5774;SDS011;2913;51.120;6.772;2022-12-18T14:38:30;42.00;;;16.83;;
5774;SDS011;2913;51.120;6.772;2022-12-18T14:41:04;53.42;;;21.42;;
5774;SDS011;2913;51.120;6.772;2022-12-18T14:43:35;58.10;;;19.98;;
5774;SDS011;2913;51.120;6.772;2022-12-18T14:46:05;48.72;;;18.67;;
5774;SDS011;2913;51.120;6.772;2022-12-18T14:48:50;63.70;;;24.83;;
5774;SDS011;2913;51.120;6.772;2022-12-18T14:51:17;51.85;;;16.90;;
5774;SDS011;2913;51.120;6.772;2022-12-18T14:53:46;55.60;;;21.88;;
5774;SDS011;2913;51.120;6.772;2022-12-18T14:56:23;86.03;;;24.70;;
5774;SDS011;2913;51.120;6.772;2022-12-18T15:01:28;64.07;;;23.67;;
5774;SDS011;2913;51.120;6.772;2022-12-18T15:03:56;57.78;;;16.55;;
5774;SDS011;2913;51.120;6.772;2022-12-18T15:06:27;53.35;;;19.23;;
5774;SDS011;2913;51.120;6.772;2022-12-18T15:09:02;46.97;;;15.73;;
5774;SDS011;2913;51.120;6.772;2022-12-18T15:14:24;41.53;;;16.13;;
5774;SDS011;2913;51.120;6.772;2022-12-18T15:16:56;57.33;;;25.60;;
5774;SDS011;2913;51.120;6.772;2022-12-18T15:19:31;50.45;;;23.20;;
5774;SDS011;2913;51.120;6.772;2022-12-18T15:22:00;54.05;;;19.63;;
5774;SDS011;2913;51.120;6.772;2022-12-18T15:24:30;58.15;;;19.85;;
5774;SDS011;2913;51.120;6.772;2022-12-18T15:26:59;55.60;;;19.40;;
5774;SDS011;2913;51.120;6.772;2022-12-18T15:29:25;54.00;;;22.40;;
5774;SDS011;2913;51.120;6.772;2022-12-18T15:31:59;52.25;;;17.75;;
5774;SDS011;2913;51.120;6.772;2022-12-18T15:34:28;57.00;;;21.58;;
5774;SDS011;2913;51.120;6.772;2022-12-18T15:36:57;41.42;;;17.23;;
5774;SDS011;2913;51.120;6.772;2022-12-18T15:39:22;61.67;;;21.55;;
5774;SDS011;2913;51.120;6.772;2022-12-18T15:41:48;51.03;;;20.85;;
5774;SDS011;2913;51.120;6.772;2022-12-18T15:44:33;41.38;;;16.00;;
5774;SDS011;2913;51.120;6.772;2022-12-18T15:46:58;47.50;;;16.42;;
5774;SDS011;2913;51.120;6.772;2022-12-18T15:49:26;58.10;;;22.83;;
5774;SDS011;2913;51.120;6.772;2022-12-18T15:51:53;64.40;;;22.83;;
5774;SDS011;2913;51.120;6.772;2022-12-18T15:54:22;61.13;;;23.75;;
5774;SDS011;2913;51.120;6.772;2022-12-18T15:57:09;63.47;;;20.38;;
5774;SDS011;2913;51.120;6.772;2022-12-18T15:59:48;62.38;;;24.40;;
5774;SDS011;2913;51.120;6.772;2022-12-18T16:02:16;44.75;;;18.73;;
5774;SDS011;2913;51.120;6.772;2022-12-18T16:04:42;47.60;;;16.42;;
5774;SDS011;2913;51.120;6.772;2022-12-18T16:07:09;61.90;;;21.42;;
5774;SDS011;2913;51.120;6.772;2022-12-18T16:09:37;69.30;;;23.63;;
5774;SDS011;2913;51.120;6.772;2022-12-18T16:12:03;62.15;;;26.08;;
5774;SDS011;2913;51.120;6.772;2022-12-18T16:14:30;57.55;;;20.58;;
5774;SDS011;2913;51.120;6.772;2022-12-18T16:17:01;38.67;;;14.30;;
5774;SDS011;2913;51.120;6.772;2022-12-18T16:19:31;48.35;;;16.40;;
5774;SDS011;2913;51.120;6.772;2022-12-18T16:21:57;43.60;;;15.88;;
5774;SDS011;2913;51.120;6.772;2022-12-18T16:24:25;51.20;;;19.35;;
5774;SDS011;2913;51.120;6.772;2022-12-18T16:26:57;66.80;;;20.23;;
5774;SDS011;2913;51.120;6.772;2022-12-18T16:29:24;73.72;;;22.92;;
5774;SDS011;2913;51.120;6.772;2022-12-18T16:31:59;54.35;;;19.23;;
5774;SDS011;2913;51.120;6.772;2022-12-18T16:34:29;62.55;;;22.55;;
5774;SDS011;2913;51.120;6.772;2022-12-18T16:37:00;40.65;;;16.33;;
5774;SDS011;2913;51.120;6.772;2022-12-18T16:39:27;70.13;;;23.00;;
5774;SDS011;2913;51.120;6.772;2022-12-18T16:41:55;45.88;;;15.77;;
5774;SDS011;2913;51.120;6.772;2022-12-18T16:44:21;42.03;;;12.70;;
5774;SDS011;2913;51.120;6.772;2022-12-18T16:46:47;38.85;;;15.10;;
5774;SDS011;2913;51.120;6.772;2022-12-18T16:49:14;41.25;;;14.68;;
5774;SDS011;2913;51.120;6.772;2022-12-18T16:51:43;66.75;;;26.50;;
5774;SDS011;2913;51.120;6.772;2022-12-18T16:54:11;37.75;;;16.67;;
5774;SDS011;2913;51.120;6.772;2022-12-18T16:56:38;61.05;;;21.85;;
5774;SDS011;2913;51.120;6.772;2022-12-18T16:59:04;62.13;;;27.83;;
5774;SDS011;2913;51.120;6.772;2022-12-18T17:01:30;76.40;;;23.13;;
5774;SDS011;2913;51.120;6.772;2022-12-18T17:04:00;51.03;;;18.40;;
5774;SDS011;2913;51.120;6.772;2022-12-18T17:06:28;65.40;;;21.63;;
5774;SDS011;2913;51.120;6.772;2022-12-18T17:08:57;46.80;;;18.70;;
5774;SDS011;2913;51.120;6.772;2022-12-18T17:11:25;44.97;;;20.65;;
5774;SDS011;2913;51.120;6.772;2022-12-18T17:13:51;44.88;;;19.50;;
5774;SDS011;2913;51.120;6.772;2022-12-18T17:16:17;61.42;;;21.13;;
5774;SDS011;2913;51.120;6.772;2022-12-18T17:18:43;46.72;;;18.48;;
5774;SDS011;2913;51.120;6.772;2022-12-18T17:21:11;81.28;;;26.80;;
5774;SDS011;2913;51.120;6.772;2022-12-18T17:23:43;39.28;;;19.73;;
5774;SDS011;2913;51.120;6.772;2022-12-18T17:26:10;44.97;;;16.85;;
5774;SDS011;2913;51.120;6.772;2022-12-18T17:28:37;51.05;;;20.00;;
5774;SDS011;2913;51.120;6.772;2022-12-18T17:31:12;57.55;;;20.85;;
5774;SDS011;2913;51.120;6.772;2022-12-18T17:33:40;61.40;;;26.48;;
5774;SDS011;2913;51.120;6.772;2022-12-18T17:36:12;44.03;;;17.10;;